Main page
METAR-TAF:

METAR-TAF

Airports :

Larnaca International Airport

Larnaca, Cyprus

latitude: 34-53N, longitude: 033-38E, elevation: 2 m

Current weather observation

The report was made 43 minutes ago, at 22:00 UTC
Wind 5 kt from the South/Southwest
Temperature 26°C
Humidity 79%
Pressure 1005 hPa
Visibility 10 km or more
Few clouds at a height of 5000 ft

METAR: LCLK 092200Z 20005KT 9999 FEW050 26/22 Q1005 NOSIG

Time: 01:43 (22:43 UTC)

Forecast

The report was made 5 hours and 13 minutes ago, at 17:30 UTC
Forecast valid from 09 at 18 UTC to 10 at 18 UTC
Wind 18 kt from the South/Southwest
Visibility 10 km or more
Few clouds at a height of 3000 ft
Becoming
from 09 at 18 UTC to 09 at 21 UTC
Wind 6 kt from the Northwest
Becoming
from 10 at 08 UTC to 10 at 11 UTC
Wind 19 kt from the South/Southwest

TAF: LCLK 091730Z 0918/1018 21018KT 9999 FEW030 BECMG 0918/0921 31006KT BECMG 1008/1011 21019KT

Weather observations and forecasts of more than 4000 airports (METAR and TAF reports).

The available stations are represented by yellow and red dots on the map.

Hover mouse over dot to see the name of the station.

Then click to see weather observations and forecasts.

To change the map : click on the green buttons with a black cross to zoom in, on the green button with a dash to zoom out, or on the green arrows for adjacent maps.


METAR-TAF: